createdAt,value
2017-10-04T00:00:51.596Z,17.40
2017-10-04T00:03:19.883Z,17.40
2017-10-04T00:05:48.159Z,17.30
2017-10-04T00:08:16.402Z,17.40
2017-10-04T00:10:44.659Z,17.30
2017-10-04T00:13:13.346Z,17.30
2017-10-04T00:15:41.987Z,17.40
2017-10-04T00:18:10.226Z,17.40
2017-10-04T00:20:38.511Z,17.40
2017-10-04T00:23:06.745Z,17.40
2017-10-04T00:25:35.021Z,17.30
2017-10-04T00:28:03.828Z,17.20
2017-10-04T00:30:32.476Z,17.20
2017-10-04T00:33:00.893Z,17.20
2017-10-04T00:35:29.368Z,17.20
2017-10-04T00:37:58.005Z,17.20
2017-10-04T00:40:26.255Z,17.20
2017-10-04T00:42:54.528Z,17.30
2017-10-04T00:45:22.789Z,17.30
2017-10-04T00:47:51.048Z,17.30
2017-10-04T00:50:19.329Z,17.30
2017-10-04T00:52:47.613Z,17.40
2017-10-04T00:55:16.313Z,17.10
2017-10-04T00:57:44.694Z,17.20
2017-10-04T01:00:12.939Z,17.10
2017-10-04T01:02:41.174Z,17.20
2017-10-04T01:05:09.457Z,17.20
2017-10-04T01:07:37.693Z,17.20
2017-10-04T01:10:05.973Z,17.20
2017-10-04T01:12:34.712Z,17.30
2017-10-04T01:15:02.970Z,17.30
2017-10-04T01:17:31.213Z,17.40
2017-10-04T01:19:59.496Z,17.40
2017-10-04T01:22:27.763Z,17.40
2017-10-04T01:24:56.005Z,17.40
2017-10-04T01:27:24.726Z,17.30
2017-10-04T01:29:52.969Z,17.30
2017-10-04T01:32:21.224Z,17.30
2017-10-04T01:34:49.500Z,17.20
2017-10-04T01:37:17.845Z,17.20
2017-10-04T01:39:46.115Z,17.30
2017-10-04T01:42:14.385Z,17.30
2017-10-04T01:44:42.625Z,17.30
2017-10-04T01:47:10.888Z,17.30
2017-10-04T01:49:39.171Z,17.40
2017-10-04T01:52:07.404Z,17.40
2017-10-04T01:54:35.658Z,17.30
2017-10-04T01:57:03.935Z,17.30
2017-10-04T01:59:32.196Z,17.30
2017-10-04T02:02:00.845Z,17.20
2017-10-04T02:04:29.124Z,17.20
2017-10-04T02:06:57.575Z,17.20
2017-10-04T02:09:25.815Z,17.20
2017-10-04T02:11:54.104Z,17.20
2017-10-04T02:14:22.548Z,17.20
2017-10-04T02:16:51.189Z,17.00
2017-10-04T02:19:19.487Z,17.00
2017-10-04T02:21:47.736Z,17.00
2017-10-04T02:24:16.008Z,16.90
2017-10-04T02:26:44.319Z,16.90
2017-10-04T02:29:12.564Z,17.00
2017-10-04T02:31:41.260Z,17.00
2017-10-04T02:34:09.526Z,17.10
2017-10-04T02:36:37.781Z,17.00
2017-10-04T02:39:06.328Z,17.00
2017-10-04T02:41:34.619Z,16.90
2017-10-04T02:44:03.273Z,16.70
2017-10-04T02:46:31.522Z,16.70
2017-10-04T02:49:04.617Z,16.70
2017-10-04T02:51:33.753Z,16.60
2017-10-04T02:54:07.013Z,16.40
2017-10-04T02:56:51.595Z,16.40
2017-10-04T02:59:20.225Z,16.30
2017-10-04T03:01:48.486Z,16.10
2017-10-04T03:04:17.104Z,16.30
2017-10-04T03:06:45.412Z,16.30
2017-10-04T03:09:13.660Z,16.30
2017-10-04T03:11:41.930Z,16.30
2017-10-04T03:14:10.233Z,16.20
2017-10-04T03:16:38.472Z,16.20
2017-10-04T03:19:06.728Z,16.20
2017-10-04T03:21:35.143Z,16.20
2017-10-04T03:26:37.989Z,16.00
2017-10-04T03:29:06.215Z,15.80
2017-10-04T03:31:34.464Z,15.60
2017-10-04T03:34:02.886Z,15.50
2017-10-04T03:36:31.565Z,15.50
2017-10-04T03:38:59.825Z,15.50
2017-10-04T03:41:28.096Z,15.60
2017-10-04T03:43:56.858Z,15.60
2017-10-04T03:46:25.422Z,15.70
2017-10-04T03:48:53.662Z,15.90
2017-10-04T03:51:21.924Z,15.90
2017-10-04T03:53:50.307Z,15.90
2017-10-04T03:56:18.884Z,15.90
2017-10-04T03:58:49.550Z,16.00
2017-10-04T04:01:17.836Z,15.80
2017-10-04T04:03:46.082Z,15.90
2017-10-04T04:06:14.518Z,16.00
2017-10-04T04:08:45.604Z,16.00
2017-10-04T04:11:13.905Z,16.00
2017-10-04T04:13:42.141Z,16.00
2017-10-04T04:16:10.392Z,15.60
2017-10-04T04:18:38.674Z,15.70
2017-10-04T04:21:07.310Z,15.60
2017-10-04T04:23:35.596Z,15.60
2017-10-04T04:26:03.867Z,15.50
2017-10-04T04:28:32.144Z,15.50
2017-10-04T04:31:00.485Z,15.60
2017-10-04T04:33:28.790Z,15.80
2017-10-04T04:35:57.046Z,15.90
2017-10-04T04:38:37.237Z,15.80
2017-10-04T04:41:06.027Z,15.90
2017-10-04T04:43:34.294Z,15.90
2017-10-04T04:46:02.571Z,15.50
2017-10-04T04:48:30.909Z,15.00
2017-10-04T04:50:59.140Z,15.10
2017-10-04T04:53:27.800Z,15.10
2017-10-04T04:55:56.072Z,15.10
2017-10-04T04:58:24.335Z,15.20
2017-10-04T05:00:52.652Z,15.50
2017-10-04T05:03:21.285Z,15.40
2017-10-04T05:05:49.540Z,15.40
2017-10-04T05:08:17.849Z,15.20
2017-10-04T05:10:46.103Z,15.30
2017-10-04T05:13:14.389Z,15.50
2017-10-04T05:15:42.653Z,15.70
2017-10-04T05:18:10.926Z,15.90
2017-10-04T05:20:39.161Z,15.80
2017-10-04T05:23:07.969Z,15.70
2017-10-04T05:25:36.816Z,15.60
2017-10-04T05:28:05.091Z,15.60
2017-10-04T05:30:33.462Z,15.40
2017-10-04T05:33:01.733Z,15.30
2017-10-04T05:35:30.019Z,15.20
2017-10-04T05:37:58.356Z,14.90
2017-10-04T05:40:26.619Z,14.60
2017-10-04T05:42:55.254Z,14.80
2017-10-04T05:45:23.595Z,14.80
2017-10-04T05:47:52.098Z,15.00
2017-10-04T05:50:20.361Z,15.20
2017-10-04T05:52:48.844Z,15.50
2017-10-04T05:55:17.229Z,15.70
2017-10-04T05:57:45.496Z,15.90
2017-10-04T06:00:14.116Z,16.00
2017-10-04T06:02:42.408Z,15.90
2017-10-04T06:05:10.888Z,15.80
2017-10-04T06:07:39.184Z,15.90
2017-10-04T06:10:07.438Z,16.10
2017-10-04T06:12:35.809Z,16.20
2017-10-04T06:15:04.072Z,16.30
2017-10-04T06:17:32.368Z,16.40
2017-10-04T06:20:00.629Z,16.40
2017-10-04T06:22:28.999Z,16.50
2017-10-04T06:24:57.239Z,16.60
2017-10-04T06:27:25.517Z,16.60
2017-10-04T06:29:53.769Z,16.70
2017-10-04T06:32:22.217Z,16.60
2017-10-04T06:34:50.550Z,16.60
2017-10-04T06:37:18.998Z,16.70
2017-10-04T06:39:47.681Z,16.80
2017-10-04T06:42:16.890Z,16.80
2017-10-04T06:44:46.102Z,16.90
2017-10-04T06:47:14.458Z,16.40
2017-10-04T06:49:42.801Z,16.60
2017-10-04T06:52:11.085Z,16.80
2017-10-04T06:54:39.346Z,16.90
2017-10-04T06:57:07.608Z,17.00
2017-10-04T06:59:35.913Z,15.70
2017-10-04T07:02:04.313Z,14.70
2017-10-04T07:04:32.676Z,13.90
2017-10-04T07:07:01.049Z,13.60
2017-10-04T07:09:29.668Z,13.30
2017-10-04T07:11:58.113Z,13.10
2017-10-04T07:14:26.357Z,12.90
2017-10-04T07:16:54.686Z,12.80
2017-10-04T07:19:23.052Z,12.70
2017-10-04T07:21:51.300Z,12.60
2017-10-04T07:24:19.597Z,12.60
2017-10-04T07:26:47.848Z,12.70
2017-10-04T07:29:16.340Z,12.70
2017-10-04T07:31:44.648Z,12.80
2017-10-04T07:34:12.931Z,12.80
2017-10-04T07:36:41.607Z,12.70
2017-10-04T07:39:10.262Z,12.70
2017-10-04T07:41:38.522Z,12.70
2017-10-04T07:44:06.805Z,12.70
2017-10-04T07:46:35.116Z,12.80
2017-10-04T07:49:03.366Z,12.90
2017-10-04T07:51:31.666Z,13.20
2017-10-04T07:53:59.930Z,13.30
2017-10-04T07:56:28.188Z,13.30
2017-10-04T07:58:56.473Z,13.10
2017-10-04T08:01:24.741Z,13.40
2017-10-04T08:03:52.989Z,13.30
2017-10-04T08:06:21.393Z,13.10
2017-10-04T08:08:49.644Z,13.00
2017-10-04T08:11:17.898Z,13.10
2017-10-04T08:13:46.546Z,13.10
2017-10-04T08:16:14.788Z,13.10
2017-10-04T08:18:43.917Z,13.10
2017-10-04T08:21:12.156Z,13.30
2017-10-04T08:23:40.434Z,13.50
2017-10-04T08:26:08.728Z,13.60
2017-10-04T08:28:36.992Z,13.50
2017-10-04T08:31:05.398Z,13.80
2017-10-04T08:33:37.439Z,13.80
2017-10-04T08:36:05.966Z,13.90
2017-10-04T08:38:34.438Z,14.10
2017-10-04T08:41:02.810Z,14.10
2017-10-04T08:43:31.057Z,14.40
2017-10-04T08:45:59.674Z,14.50
2017-10-04T08:48:39.751Z,14.60
2017-10-04T08:51:08.079Z,14.80
2017-10-04T08:53:36.658Z,14.30
2017-10-04T08:56:04.960Z,14.10
2017-10-04T08:58:33.206Z,14.00
2017-10-04T09:01:02.368Z,14.10
2017-10-04T09:03:30.628Z,14.60
2017-10-04T09:06:03.150Z,15.70
2017-10-04T09:08:31.461Z,15.70
2017-10-04T09:10:59.736Z,16.10
2017-10-04T09:13:28.003Z,16.30
2017-10-04T09:15:56.277Z,16.50
2017-10-04T09:18:24.579Z,16.70
2017-10-04T09:20:52.932Z,17.00
2017-10-04T09:23:21.685Z,17.40
2017-10-04T09:25:50.060Z,17.40
2017-10-04T09:28:18.318Z,17.70
2017-10-04T09:30:46.979Z,18.40
2017-10-04T09:33:15.452Z,18.40
2017-10-04T09:35:43.714Z,18.70
2017-10-04T09:38:12.008Z,18.90
2017-10-04T09:40:40.596Z,19.20
2017-10-04T09:43:08.861Z,19.30
2017-10-04T09:45:37.164Z,19.40
2017-10-04T09:48:07.075Z,19.50
2017-10-04T09:50:35.407Z,19.50
2017-10-04T09:53:03.842Z,19.50
2017-10-04T09:55:33.698Z,19.50
2017-10-04T09:58:01.982Z,19.40
2017-10-04T10:00:30.532Z,19.20
2017-10-04T10:02:59.423Z,19.50
2017-10-04T10:05:27.789Z,19.50
2017-10-04T10:07:56.398Z,19.60
2017-10-04T10:10:24.709Z,19.60
2017-10-04T10:12:53.293Z,19.70
2017-10-04T10:15:21.730Z,19.80
2017-10-04T10:17:49.983Z,19.70
2017-10-04T10:20:18.886Z,19.60
2017-10-04T10:22:47.495Z,19.50
2017-10-04T10:25:15.779Z,19.40
2017-10-04T10:27:44.050Z,19.20
2017-10-04T10:30:12.412Z,19.20
2017-10-04T10:32:40.713Z,19.20
2017-10-04T10:35:09.807Z,19.20
2017-10-04T10:37:38.167Z,19.00
2017-10-04T10:40:06.523Z,18.90
2017-10-04T10:42:35.193Z,18.70
2017-10-04T10:45:03.529Z,18.70
2017-10-04T10:47:31.769Z,18.60
2017-10-04T10:50:00.449Z,18.50
2017-10-04T10:52:28.938Z,18.50
2017-10-04T10:54:57.625Z,18.70
2017-10-04T10:57:26.018Z,18.70
2017-10-04T10:59:54.329Z,18.50
2017-10-04T11:02:23.216Z,18.40
2017-10-04T11:04:51.608Z,18.40
2017-10-04T11:07:20.557Z,18.30
2017-10-04T11:09:48.801Z,18.30
2017-10-04T11:12:17.486Z,18.30
2017-10-04T11:14:46.172Z,18.40
2017-10-04T11:17:14.483Z,18.40
2017-10-04T11:19:42.741Z,18.40
2017-10-04T11:22:11.168Z,18.20
2017-10-04T11:24:39.423Z,18.20
2017-10-04T11:27:07.687Z,18.10
2017-10-04T11:29:35.968Z,18.10
2017-10-04T11:32:04.230Z,18.30
2017-10-04T11:34:32.506Z,18.20
2017-10-04T11:37:00.839Z,18.10
2017-10-04T11:39:29.093Z,18.10
2017-10-04T11:41:57.406Z,18.20
2017-10-04T11:44:26.112Z,18.10
2017-10-04T11:46:54.438Z,18.10
2017-10-04T11:49:22.770Z,18.20
2017-10-04T11:51:51.027Z,18.30
2017-10-04T11:54:19.326Z,18.40
2017-10-04T11:56:47.822Z,18.50
2017-10-04T11:59:16.160Z,18.50
2017-10-04T12:01:44.424Z,18.40
2017-10-04T12:04:12.804Z,18.40
2017-10-04T12:06:42.511Z,18.40
2017-10-04T12:09:10.784Z,18.30
2017-10-04T12:11:39.479Z,18.30
2017-10-04T12:14:07.744Z,18.30
2017-10-04T12:16:35.995Z,18.40
2017-10-04T12:19:04.304Z,18.40
2017-10-04T12:21:32.609Z,18.40
2017-10-04T12:24:01.091Z,18.20
2017-10-04T12:26:29.724Z,18.30
2017-10-04T12:28:58.249Z,18.30
2017-10-04T12:31:26.908Z,18.30
2017-10-04T12:33:56.380Z,18.40
2017-10-04T12:36:24.934Z,18.40
2017-10-04T12:38:53.597Z,18.50
2017-10-04T12:41:22.301Z,18.40
2017-10-04T12:43:50.671Z,18.40
2017-10-04T12:46:18.960Z,18.40
2017-10-04T12:48:47.678Z,18.20
2017-10-04T12:51:15.945Z,18.20
2017-10-04T12:53:44.207Z,18.30
2017-10-04T12:56:12.470Z,18.30
2017-10-04T12:58:40.770Z,18.30
2017-10-04T13:01:09.040Z,18.40
2017-10-04T13:03:37.516Z,18.40
2017-10-04T13:06:05.890Z,18.40
2017-10-04T13:08:34.136Z,18.40
2017-10-04T13:11:02.820Z,18.10
2017-10-04T13:13:31.545Z,18.10
2017-10-04T13:15:59.813Z,18.10
2017-10-04T13:18:28.103Z,18.20
2017-10-04T13:20:56.426Z,18.10
2017-10-04T13:23:24.785Z,18.10
2017-10-04T13:25:53.056Z,18.10
2017-10-04T13:28:21.366Z,18.20
2017-10-04T13:30:49.714Z,18.30
2017-10-04T13:33:18.240Z,18.20
2017-10-04T13:35:46.745Z,18.30
2017-10-04T13:38:14.992Z,18.10
2017-10-04T13:40:44.039Z,18.20
2017-10-04T13:43:12.280Z,18.20
2017-10-04T13:45:40.581Z,18.20
2017-10-04T13:48:08.976Z,18.10
2017-10-04T13:50:37.251Z,17.80
2017-10-04T13:53:05.502Z,17.80
2017-10-04T13:55:33.818Z,17.80
2017-10-04T13:58:02.105Z,17.90
2017-10-04T14:00:30.497Z,18.00
2017-10-04T14:02:58.761Z,18.00
2017-10-04T14:05:27.021Z,18.00
2017-10-04T14:07:55.325Z,18.00
2017-10-04T14:10:23.573Z,17.90
2017-10-04T14:12:51.868Z,17.80
2017-10-04T14:15:20.501Z,17.70
2017-10-04T14:17:48.764Z,17.60
2017-10-04T14:20:17.010Z,17.60
2017-10-04T14:22:45.372Z,17.60
2017-10-04T14:25:13.632Z,17.60
2017-10-04T14:27:42.642Z,17.70
2017-10-04T14:30:10.938Z,17.60
2017-10-04T14:32:39.201Z,17.70
2017-10-04T14:35:07.561Z,17.60
2017-10-04T14:37:36.021Z,17.50
2017-10-04T14:40:04.277Z,17.60
2017-10-04T14:42:32.517Z,17.50
2017-10-04T14:45:00.865Z,17.40
2017-10-04T14:47:29.153Z,17.20
2017-10-04T14:49:57.479Z,17.20
2017-10-04T14:52:25.808Z,17.20
2017-10-04T14:54:54.301Z,17.30
2017-10-04T14:57:22.596Z,17.40
2017-10-04T14:59:52.382Z,17.40
2017-10-04T15:02:20.902Z,17.40
2017-10-04T15:04:49.189Z,17.40
2017-10-04T15:07:17.512Z,17.30
2017-10-04T15:09:46.908Z,17.40
2017-10-04T15:12:15.225Z,17.40
2017-10-04T15:14:43.511Z,17.40
2017-10-04T15:17:11.895Z,17.30
2017-10-04T15:19:40.147Z,17.30
2017-10-04T15:22:08.625Z,17.30
2017-10-04T15:24:36.940Z,17.20
2017-10-04T15:27:05.253Z,17.20
2017-10-04T15:29:33.516Z,17.20
2017-10-04T15:32:02.070Z,17.00
2017-10-04T15:34:30.357Z,16.90
2017-10-04T15:36:59.369Z,17.00
2017-10-04T15:39:27.721Z,17.10
2017-10-04T15:41:56.014Z,17.10
2017-10-04T15:44:24.352Z,17.10
2017-10-04T15:46:52.709Z,17.10
2017-10-04T15:49:21.396Z,16.80
2017-10-04T15:51:49.672Z,16.80
2017-10-04T15:54:17.988Z,17.00
2017-10-04T15:56:46.272Z,17.00
2017-10-04T15:59:14.841Z,16.90
2017-10-04T16:01:43.199Z,16.80
2017-10-04T16:04:11.523Z,16.90
2017-10-04T16:06:39.784Z,17.00
2017-10-04T16:09:08.760Z,17.10
2017-10-04T16:11:37.008Z,17.10
2017-10-04T16:14:05.267Z,17.00
2017-10-04T16:16:33.580Z,17.10
2017-10-04T16:19:01.882Z,17.00
2017-10-04T16:21:30.452Z,17.00
2017-10-04T16:24:00.042Z,17.00
2017-10-04T16:26:28.276Z,17.00
2017-10-04T16:28:56.557Z,17.00
2017-10-04T16:31:25.338Z,16.80
2017-10-04T16:33:53.658Z,16.80
2017-10-04T16:36:21.921Z,16.90
2017-10-04T16:38:50.613Z,16.90
2017-10-04T16:41:18.894Z,16.90
2017-10-04T16:43:47.219Z,16.80
2017-10-04T16:46:15.548Z,16.80
2017-10-04T16:48:44.220Z,16.90
2017-10-04T16:51:12.857Z,16.90
2017-10-04T16:53:41.270Z,16.90
2017-10-04T16:56:09.516Z,17.00
2017-10-04T16:58:37.957Z,17.00
2017-10-04T17:01:06.713Z,16.90
2017-10-04T17:03:34.988Z,17.00
2017-10-04T17:06:03.248Z,16.70
2017-10-04T17:08:31.498Z,16.70
2017-10-04T17:10:59.754Z,16.80
2017-10-04T17:13:28.027Z,16.90
2017-10-04T17:15:56.396Z,16.90
2017-10-04T17:18:24.689Z,17.00
2017-10-04T17:20:53.310Z,16.90
2017-10-04T17:23:21.639Z,16.90
2017-10-04T17:25:49.941Z,16.90
2017-10-04T17:28:18.181Z,16.80
2017-10-04T17:30:46.454Z,16.70
2017-10-04T17:33:14.720Z,16.70
2017-10-04T17:35:43.364Z,16.70
2017-10-04T17:38:11.646Z,16.70
2017-10-04T17:40:40.124Z,16.70
2017-10-04T17:43:08.399Z,16.80
2017-10-04T17:45:36.706Z,16.80
2017-10-04T17:48:04.948Z,16.90
2017-10-04T17:50:33.260Z,16.90
2017-10-04T17:53:01.940Z,16.90
2017-10-04T17:55:30.209Z,16.70
2017-10-04T17:57:58.523Z,16.60
2017-10-04T18:00:27.474Z,16.60
2017-10-04T18:02:55.775Z,16.50
2017-10-04T18:05:24.339Z,16.50
2017-10-04T18:07:52.849Z,16.50
2017-10-04T18:10:21.546Z,16.50
2017-10-04T18:12:49.877Z,16.50
2017-10-04T18:15:18.193Z,16.40
2017-10-04T18:17:46.899Z,16.40
2017-10-04T18:20:15.243Z,16.40
2017-10-04T18:22:43.942Z,16.40
2017-10-04T18:25:12.229Z,16.50
2017-10-04T18:27:40.569Z,16.40
2017-10-04T18:30:08.858Z,16.30
2017-10-04T18:32:37.238Z,16.30
2017-10-04T18:35:05.651Z,16.50
2017-10-04T18:37:33.909Z,16.60
2017-10-04T18:40:02.786Z,16.50
2017-10-04T18:42:31.160Z,16.50
2017-10-04T18:45:00.057Z,16.50
2017-10-04T18:47:28.761Z,16.60
2017-10-04T18:49:57.033Z,16.60
2017-10-04T18:52:25.293Z,16.70
2017-10-04T18:54:53.733Z,16.70
2017-10-04T18:57:22.041Z,16.70
2017-10-04T18:59:50.349Z,16.80
2017-10-04T19:02:18.718Z,16.80
2017-10-04T19:04:56.871Z,16.60
2017-10-04T19:07:27.117Z,16.60
2017-10-04T19:09:55.514Z,16.60
2017-10-04T19:12:24.210Z,16.60
2017-10-04T19:14:52.893Z,16.60
2017-10-04T19:17:21.160Z,16.60
2017-10-04T19:19:49.913Z,16.50
2017-10-04T19:22:18.238Z,16.50
2017-10-04T19:24:47.345Z,16.30
2017-10-04T19:27:16.542Z,16.40
2017-10-04T19:29:44.826Z,16.50
2017-10-04T19:32:14.419Z,16.60
2017-10-04T19:34:44.604Z,16.60
2017-10-04T19:37:15.837Z,16.60
2017-10-04T19:39:45.525Z,16.70
2017-10-04T19:42:14.319Z,16.70
2017-10-04T19:44:43.247Z,16.80
2017-10-04T19:47:12.934Z,16.90
2017-10-04T19:49:41.245Z,16.90
2017-10-04T19:52:09.915Z,16.80
2017-10-04T19:54:38.198Z,16.80
2017-10-04T19:57:06.484Z,16.90
2017-10-04T19:59:34.709Z,16.90
2017-10-04T20:02:02.977Z,17.00
2017-10-04T20:04:31.265Z,17.20
2017-10-04T20:06:59.872Z,17.40
2017-10-04T20:09:28.177Z,17.50
2017-10-04T20:11:56.502Z,17.60
2017-10-04T20:14:24.747Z,17.70
2017-10-04T20:16:53.012Z,17.80
2017-10-04T20:19:21.664Z,17.90
2017-10-04T20:21:49.961Z,17.90
2017-10-04T20:24:18.290Z,17.80
2017-10-04T20:26:46.583Z,17.80
2017-10-04T20:29:14.854Z,17.90
2017-10-04T20:31:43.984Z,17.90
2017-10-04T20:34:12.232Z,18.00
2017-10-04T20:36:40.596Z,17.90
2017-10-04T20:42:12.061Z,17.70
2017-10-04T20:44:40.425Z,17.60
2017-10-04T20:47:08.739Z,17.70
2017-10-04T20:49:37.112Z,17.90
2017-10-04T20:52:05.568Z,17.90
2017-10-04T20:54:33.844Z,17.90
2017-10-04T20:57:02.106Z,18.00
2017-10-04T20:59:38.041Z,17.90
2017-10-04T21:02:06.329Z,18.00
2017-10-04T21:04:34.653Z,18.10
2017-10-04T21:07:02.973Z,18.20
2017-10-04T21:09:31.624Z,18.40
2017-10-04T21:11:59.938Z,18.40
2017-10-04T21:14:28.686Z,18.40
2017-10-04T21:16:56.957Z,18.40
2017-10-04T21:19:25.638Z,18.40
2017-10-04T21:21:54.277Z,18.40
2017-10-04T21:24:22.817Z,18.40
2017-10-04T21:26:51.048Z,18.40
2017-10-04T21:29:19.309Z,18.40
2017-10-04T21:31:47.578Z,18.30
2017-10-04T21:34:15.897Z,18.40
2017-10-04T21:36:44.354Z,18.40
2017-10-04T21:39:12.687Z,18.50
2017-10-04T21:41:40.934Z,18.40
2017-10-04T21:44:09.256Z,18.30
2017-10-04T21:46:38.175Z,18.40
2017-10-04T21:49:06.467Z,18.40
2017-10-04T21:51:34.751Z,18.50
2017-10-04T21:54:03.150Z,18.50
2017-10-04T21:56:36.752Z,18.30
2017-10-04T21:59:06.496Z,18.30
2017-10-04T22:01:35.480Z,18.40
2017-10-04T22:04:04.561Z,18.40
2017-10-04T22:06:33.488Z,18.60
2017-10-04T22:09:02.528Z,18.60
2017-10-04T22:11:32.174Z,18.60
2017-10-04T22:14:01.448Z,18.70
2017-10-04T22:16:30.847Z,18.70
2017-10-04T22:18:59.867Z,18.60
2017-10-04T22:21:28.727Z,18.60
2017-10-04T22:23:58.731Z,18.50
2017-10-04T22:26:28.790Z,18.50
2017-10-04T22:28:57.878Z,18.30
2017-10-04T22:31:26.985Z,18.20
2017-10-04T22:33:56.549Z,18.20
2017-10-04T22:36:25.210Z,18.10
2017-10-04T22:38:54.910Z,18.00
2017-10-04T22:41:23.890Z,17.80
2017-10-04T22:43:54.896Z,17.80
2017-10-04T22:46:25.412Z,17.70
2017-10-04T22:48:55.722Z,17.60
2017-10-04T22:51:26.574Z,17.60
2017-10-04T22:53:57.713Z,17.60
2017-10-04T22:56:28.165Z,17.30
2017-10-04T22:58:58.090Z,17.30
2017-10-04T23:01:28.388Z,17.30
2017-10-04T23:03:59.070Z,17.30
2017-10-04T23:06:29.856Z,17.30
2017-10-04T23:09:00.961Z,17.30
2017-10-04T23:11:33.079Z,17.30
2017-10-04T23:14:04.355Z,17.30
2017-10-04T23:16:34.533Z,17.30
2017-10-04T23:19:04.021Z,17.20
2017-10-04T23:21:33.190Z,17.20
2017-10-04T23:24:01.859Z,17.20
2017-10-04T23:26:30.324Z,17.10
2017-10-04T23:28:59.595Z,17.00
2017-10-04T23:31:27.845Z,17.00
2017-10-04T23:33:56.471Z,17.00
2017-10-04T23:36:24.695Z,17.00
2017-10-04T23:38:52.929Z,17.00
2017-10-04T23:41:21.210Z,17.00
2017-10-04T23:43:49.443Z,17.00
2017-10-04T23:46:17.681Z,17.00
2017-10-04T23:48:46.333Z,17.00
2017-10-04T23:51:14.560Z,17.00
2017-10-04T23:53:42.823Z,16.90
2017-10-04T23:56:11.112Z,16.90
2017-10-04T23:58:39.371Z,16.90
